Bridger, MT

3:09 AM MDT on October 25, 2014 (GMT -0600)
Bearpaw Ranch | Change Station
CLOSE
Current Station
Personal Weather Station
Location: Columbus, MT
Elevation: 4577 ft
Nearby Weather Stations

Elev 4577 ft 45.55 °N, 109.22 °W | Updated 3 minutes ago

Partly Cloudy
Partly Cloudy
41.4 °F
Feels Like 41 °F
N
0.0
Wind Variable Wind from ESE
Gusts 0.0 mph

Today
High -- | Low -- °F
--% Chance of Precip.
Yesterday
High -- | Low -- °F
Precip. -- in
7:45 AM 6:13 PM
New Moon, 2% visible
Pressure 30.10 in
Visibility 10.0 miles
Clouds Clear
Windchill 41 °F
Dew Point 36 °F
Humidity 80%
Rainfall 0.00 in
Snow Depth Not available.
UV 0 out of 12
Pollen 1.70 out of 12
Air Quality Not available.
Flu Activity Not available.
METAR KBIL 250853Z 36003KT 10SM CLR 06/01 A3010 RMK AO2 SLP192 T00560006 56001

More Conditions Fewer Conditions

Pressure 30.10 in
Visibility 10.0 miles
Clouds Clear
Windchill 41 °F
Dew Point 36 °F
Humidity 80%
Rainfall 0.00 in
Snow Depth Not available.
UV 0 out of 12
Pollen 1.70 out of 12
Air Quality Not available.
Flu Activity Not available.
METAR KBIL 250853Z 36003KT 10SM CLR 06/01 A3010 RMK AO2 SLP192 T00560006 56001

More Conditions Fewer Conditions

10-Day Weather Forecast

Almanac

Astronomy

Oct. 25, 2014 Rise Set
Actual Time 7:45 AM MDT 6:13 PM MDT
Civil Twilight 7:14 AM MDT 6:43 PM MDT
Nautical Twilight 6:40 AM MDT 7:18 PM MDT
Astronomical Twilight 6:06 AM MDT 7:52 PM MDT
Moon 9:30 AM MDT 7:34 PM MDT
Length of Visible Light 11h 28m
Length of Day
10h 28m
Tomorrow will be 2m 56s shorter.
New Moon, 2% of the Moon is Illuminated
Today
New Moon
Oct 30
First Quarter
Nov 6
Full
Nov 14
Last Quarter
Nov 22
New

Today's Extremes

State Highs State Lows

Community

WunderPhotos

Upload Photos

1,764,796 photos uploaded!

Nearby

Snow Depth

Station Depth Elevation
Burnt Mountain 1 in 5880 ft
Fisher Creek 2 in 9100 ft
Northeast Entrance 0 in 7350 ft
Monument Peak 0 in 8850 ft
South Fork Shields 1 in 8100 ft

Earthquake Activity

City Distance Mag. Time & Date
No recent earthquake activity has been reported nearby.
Minimum magnitude displayed is 2.5.

Coastal Water Temperatures

Place Temperature
No Stations Reporting

Nearby Weather Stations